sensor_id;sensor_type;location;lat;lon;timestamp;pressure;altitude;pressure_sealevel;temperature;humidity
43312;BME280;30041;48.300;16.352;2023-05-03T00:02:01;100360.59;;;24.03;44.21
43312;BME280;30041;48.300;16.352;2023-05-03T00:04:27;100367.63;;;24.04;44.10
43312;BME280;30041;48.300;16.352;2023-05-03T00:06:52;100370.94;;;24.06;43.95
43312;BME280;30041;48.300;16.352;2023-05-03T00:09:18;100363.88;;;24.05;44.29
43312;BME280;30041;48.300;16.352;2023-05-03T00:11:43;100366.81;;;24.03;44.28
43312;BME280;30041;48.300;16.352;2023-05-03T00:14:09;100367.63;;;24.04;44.50
43312;BME280;30041;48.300;16.352;2023-05-03T00:16:34;100364.94;;;24.04;44.17
43312;BME280;30041;48.300;16.352;2023-05-03T00:19:00;100363.06;;;24.05;44.25
43312;BME280;30041;48.300;16.352;2023-05-03T00:21:25;100366.59;;;24.05;44.23
43312;BME280;30041;48.300;16.352;2023-05-03T00:23:51;100364.94;;;24.04;44.36
43312;BME280;30041;48.300;16.352;2023-05-03T00:26:16;100366.59;;;24.05;44.38
43312;BME280;30041;48.300;16.352;2023-05-03T00:28:42;100368.22;;;24.06;44.17
43312;BME280;30041;48.300;16.352;2023-05-03T00:31:08;100364.94;;;24.04;44.16
43312;BME280;30041;48.300;16.352;2023-05-03T00:33:36;100363.63;;;24.07;44.27
43312;BME280;30041;48.300;16.352;2023-05-03T00:36:08;100359.06;;;24.07;44.08
43312;BME280;30041;48.300;16.352;2023-05-03T00:38:34;100354.47;;;24.08;44.14
43312;BME280;30041;48.300;16.352;2023-05-03T00:41:00;100352.78;;;24.07;43.99
43312;BME280;30041;48.300;16.352;2023-05-03T00:43:25;100353.97;;;24.11;44.06
43312;BME280;30041;48.300;16.352;2023-05-03T00:45:51;100352.34;;;24.10;43.94
43312;BME280;30041;48.300;16.352;2023-05-03T00:48:16;100355.28;;;24.08;44.33
43312;BME280;30041;48.300;16.352;2023-05-03T00:50:42;100362.34;;;24.09;44.13
43312;BME280;30041;48.300;16.352;2023-05-03T00:53:08;100360.69;;;24.08;44.07
43312;BME280;30041;48.300;16.352;2023-05-03T00:55:33;100364.22;;;24.09;44.10
43312;BME280;30041;48.300;16.352;2023-05-03T00:58:00;100357.97;;;24.08;44.07
43312;BME280;30041;48.300;16.352;2023-05-03T01:00:25;100358.56;;;24.10;43.99
43312;BME280;30041;48.300;16.352;2023-05-03T01:02:51;100362.09;;;24.11;43.96
43312;BME280;30041;48.300;16.352;2023-05-03T01:05:17;100364.81;;;24.11;44.17
43312;BME280;30041;48.300;16.352;2023-05-03T01:07:59;100362.34;;;24.09;44.21
43312;BME280;30041;48.300;16.352;2023-05-03T01:10:41;100361.28;;;24.10;44.25
43312;BME280;30041;48.300;16.352;2023-05-03T01:13:23;100354.47;;;24.08;44.09
43312;BME280;30041;48.300;16.352;2023-05-03T01:15:59;100347.97;;;24.09;43.92
43312;BME280;30041;48.300;16.352;2023-05-03T01:18:30;100360.19;;;24.11;43.83
43312;BME280;30041;48.300;16.352;2023-05-03T01:20:59;100369.19;;;24.12;43.99
43312;BME280;30041;48.300;16.352;2023-05-03T01:28:44;100365.63;;;24.11;44.14
43312;BME280;30041;48.300;16.352;2023-05-03T01:31:09;100363.16;;;24.10;44.09
43312;BME280;30041;48.300;16.352;2023-05-03T01:33:52;100362.91;;;24.11;43.79
43312;BME280;30041;48.300;16.352;2023-05-03T01:36:22;100369.50;;;24.15;44.02
43312;BME280;30041;48.300;16.352;2023-05-03T01:38:51;100361.16;;;24.17;43.67
43312;BME280;30041;48.300;16.352;2023-05-03T01:41:18;100357.63;;;24.16;43.96
43312;BME280;30041;48.300;16.352;2023-05-03T01:43:45;100362.69;;;24.13;43.73
43312;BME280;30041;48.300;16.352;2023-05-03T01:46:11;100366.47;;;24.12;44.12
43312;BME280;30041;48.300;16.352;2023-05-03T01:48:37;100361.88;;;24.12;44.05
43312;BME280;30041;48.300;16.352;2023-05-03T01:51:02;100362.47;;;24.14;44.02
43312;BME280;30041;48.300;16.352;2023-05-03T01:53:28;100359.97;;;24.13;44.00
43312;BME280;30041;48.300;16.352;2023-05-03T01:55:53;100365.16;;;24.14;43.98
43312;BME280;30041;48.300;16.352;2023-05-03T01:58:19;100359.16;;;24.12;43.99
43312;BME280;30041;48.300;16.352;2023-05-03T02:00:44;100358.69;;;24.15;43.83
43312;BME280;30041;48.300;16.352;2023-05-03T02:03:10;100357.03;;;24.14;43.76
43312;BME280;30041;48.300;16.352;2023-05-03T02:05:35;100359.53;;;24.16;44.02
43312;BME280;30041;48.300;16.352;2023-05-03T02:08:01;100362.47;;;24.14;43.93
43312;BME280;30041;48.300;16.352;2023-05-03T02:10:26;100364.09;;;24.15;43.79
43312;BME280;30041;48.300;16.352;2023-05-03T02:12:52;100371.16;;;24.16;44.01
43312;BME280;30041;48.300;16.352;2023-05-03T02:15:17;100361.63;;;24.14;43.89
43312;BME280;30041;48.300;16.352;2023-05-03T02:17:43;100363.84;;;24.17;43.87
43312;BME280;30041;48.300;16.352;2023-05-03T02:20:08;100362.56;;;24.19;43.72
43312;BME280;30041;48.300;16.352;2023-05-03T02:22:34;100359.84;;;24.19;43.75
43312;BME280;30041;48.300;16.352;2023-05-03T02:25:00;100368.78;;;24.20;44.00
43312;BME280;30041;48.300;16.352;2023-05-03T02:27:25;100370.09;;;24.17;43.70
43312;BME280;30041;48.300;16.352;2023-05-03T02:29:51;100369.63;;;24.20;43.85
43312;BME280;30041;48.300;16.352;2023-05-03T02:32:17;100372.56;;;24.19;43.86
43312;BME280;30041;48.300;16.352;2023-05-03T02:34:45;100366.34;;;24.18;43.73
43312;BME280;30041;48.300;16.352;2023-05-03T02:37:11;100370.34;;;24.16;44.06
43312;BME280;30041;48.300;16.352;2023-05-03T02:39:37;100371.16;;;24.16;43.56
43312;BME280;30041;48.300;16.352;2023-05-03T02:42:02;100369.88;;;24.19;43.82
43312;BME280;30041;48.300;16.352;2023-05-03T02:44:28;100372.34;;;24.20;43.89
43312;BME280;30041;48.300;16.352;2023-05-03T02:46:53;100365.25;;;24.19;43.78
43312;BME280;30041;48.300;16.352;2023-05-03T02:49:19;100365.25;;;24.19;43.93
43312;BME280;30041;48.300;16.352;2023-05-03T02:51:44;100368.56;;;24.21;43.57
43312;BME280;30041;48.300;16.352;2023-05-03T02:54:10;100366.09;;;24.20;43.89
43312;BME280;30041;48.300;16.352;2023-05-03T02:56:35;100365.84;;;24.21;43.69
43312;BME280;30041;48.300;16.352;2023-05-03T02:59:01;100365.63;;;24.23;43.74
43312;BME280;30041;48.300;16.352;2023-05-03T03:01:27;100364.22;;;24.20;43.68
43312;BME280;30041;48.300;16.352;2023-05-03T03:03:52;100357.97;;;24.20;43.58
43312;BME280;30041;48.300;16.352;2023-05-03T03:06:17;100364.22;;;24.20;43.59
43312;BME280;30041;48.300;16.352;2023-05-03T03:08:43;100358.53;;;24.22;43.72
43312;BME280;30041;48.300;16.352;2023-05-03T03:11:08;100362.31;;;24.21;43.48
43312;BME280;30041;48.300;16.352;2023-05-03T03:13:34;100365.84;;;24.21;43.89
43312;BME280;30041;48.300;16.352;2023-05-03T03:16:00;100361.03;;;24.23;43.80
43312;BME280;30041;48.300;16.352;2023-05-03T03:18:25;100365.25;;;24.19;43.59
43312;BME280;30041;48.300;16.352;2023-05-03T03:20:51;100362.56;;;24.19;43.76
43312;BME280;30041;48.300;16.352;2023-05-03T03:23:16;100369.97;;;24.24;43.50
43312;BME280;30041;48.300;16.352;2023-05-03T03:25:42;100378.09;;;24.24;43.47
43312;BME280;30041;48.300;16.352;2023-05-03T03:28:07;100369.97;;;24.24;43.61
43312;BME280;30041;48.300;16.352;2023-05-03T03:30:33;100370.78;;;24.24;43.53
43312;BME280;30041;48.300;16.352;2023-05-03T03:32:58;100378.91;;;24.24;43.74
43312;BME280;30041;48.300;16.352;2023-05-03T03:35:24;100375.38;;;24.24;43.79
43312;BME280;30041;48.300;16.352;2023-05-03T03:37:50;100386.47;;;24.22;43.54
43312;BME280;30041;48.300;16.352;2023-05-03T03:40:15;100386.22;;;24.24;43.47
43312;BME280;30041;48.300;16.352;2023-05-03T03:42:41;100388.94;;;24.24;43.51
43312;BME280;30041;48.300;16.352;2023-05-03T03:45:07;100392.44;;;24.24;43.78
43312;BME280;30041;48.300;16.352;2023-05-03T03:47:32;100392.44;;;24.24;43.56
43312;BME280;30041;48.300;16.352;2023-05-03T03:49:59;100388.69;;;24.26;43.58
43312;BME280;30041;48.300;16.352;2023-05-03T03:52:25;100392.22;;;24.26;43.39
43312;BME280;30041;48.300;16.352;2023-05-03T03:54:51;100391.19;;;24.27;43.55
43312;BME280;30041;48.300;16.352;2023-05-03T03:57:16;100391.41;;;24.26;43.56
43312;BME280;30041;48.300;16.352;2023-05-03T03:59:42;100393.03;;;24.27;43.37
43312;BME280;30041;48.300;16.352;2023-05-03T04:02:08;100393.03;;;24.27;43.51
43312;BME280;30041;48.300;16.352;2023-05-03T04:04:33;100399.03;;;24.29;43.71
43312;BME280;30041;48.300;16.352;2023-05-03T04:06:58;100402.84;;;24.28;43.58
43312;BME280;30041;48.300;16.352;2023-05-03T04:09:24;100397.41;;;24.28;43.65
43312;BME280;30041;48.300;16.352;2023-05-03T04:11:49;100400.13;;;24.28;43.48
43312;BME280;30041;48.300;16.352;2023-05-03T04:14:15;100405.75;;;24.26;43.73
43312;BME280;30041;48.300;16.352;2023-05-03T04:16:40;100401.75;;;24.29;43.51
43312;BME280;30041;48.300;16.352;2023-05-03T04:19:06;100409.06;;;24.28;43.43
43312;BME280;30041;48.300;16.352;2023-05-03T04:21:31;100412.63;;;24.05;43.76
43312;BME280;30041;48.300;16.352;2023-05-03T04:23:57;100416.31;;;23.69;43.87
43312;BME280;30041;48.300;16.352;2023-05-03T04:26:22;100422.41;;;23.52;44.43
43312;BME280;30041;48.300;16.352;2023-05-03T04:28:48;100418.78;;;23.47;44.95
43312;BME280;30041;48.300;16.352;2023-05-03T04:31:13;100433.22;;;23.40;45.13
43312;BME280;30041;48.300;16.352;2023-05-03T04:33:39;100421.59;;;23.40;45.43
43312;BME280;30041;48.300;16.352;2023-05-03T04:36:04;100426.16;;;23.39;45.37
43312;BME280;30041;48.300;16.352;2023-05-03T04:38:30;100435.56;;;23.37;45.21
43312;BME280;30041;48.300;16.352;2023-05-03T04:40:55;100433.53;;;23.32;45.68
43312;BME280;30041;48.300;16.352;2023-05-03T04:43:21;100434.25;;;23.28;45.63
43312;BME280;30041;48.300;16.352;2023-05-03T04:45:46;100437.53;;;23.30;45.67
43312;BME280;30041;48.300;16.352;2023-05-03T04:48:12;100443.16;;;23.28;45.80
43312;BME280;30041;48.300;16.352;2023-05-03T04:50:37;100442.94;;;23.30;45.59
43312;BME280;30041;48.300;16.352;2023-05-03T04:53:03;100445.66;;;23.30;45.84
43312;BME280;30041;48.300;16.352;2023-05-03T04:55:28;100452.22;;;23.22;45.97
43312;BME280;30041;48.300;16.352;2023-05-03T04:57:54;100455.75;;;23.23;44.89
43312;BME280;30041;48.300;16.352;2023-05-03T05:00:20;100450.66;;;23.14;45.42
43312;BME280;30041;48.300;16.352;2023-05-03T05:02:45;100453.03;;;23.23;45.51
43312;BME280;30041;48.300;16.352;2023-05-03T05:05:10;100453.16;;;23.28;45.53
43312;BME280;30041;48.300;16.352;2023-05-03T05:07:36;100454.00;;;23.28;45.64
43312;BME280;30041;48.300;16.352;2023-05-03T05:10:02;100453.63;;;23.25;45.69
43312;BME280;30041;48.300;16.352;2023-05-03T05:12:27;100456.56;;;23.23;45.67
43312;BME280;30041;48.300;16.352;2023-05-03T05:14:53;100457.38;;;23.24;45.66
43312;BME280;30041;48.300;16.352;2023-05-03T05:17:18;100459.88;;;23.25;45.46
43312;BME280;30041;48.300;16.352;2023-05-03T05:19:44;100459.03;;;23.25;45.51
43312;BME280;30041;48.300;16.352;2023-05-03T05:22:09;100460.69;;;23.26;45.72
43312;BME280;30041;48.300;16.352;2023-05-03T05:24:34;100466.56;;;23.23;46.12
43312;BME280;30041;48.300;16.352;2023-05-03T05:27:00;100465.16;;;23.20;46.02
43312;BME280;30041;48.300;16.352;2023-05-03T05:29:25;100469.25;;;23.23;45.98
43312;BME280;30041;48.300;16.352;2023-05-03T05:31:51;100472.41;;;23.19;46.64
43312;BME280;30041;48.300;16.352;2023-05-03T05:34:17;100477.00;;;23.19;46.81
43312;BME280;30041;48.300;16.352;2023-05-03T05:36:42;100470.22;;;22.79;46.09
43312;BME280;30041;48.300;16.352;2023-05-03T05:39:08;100475.00;;;22.59;45.88
43312;BME280;30041;48.300;16.352;2023-05-03T05:41:33;100471.69;;;22.57;45.70
43312;BME280;30041;48.300;16.352;2023-05-03T05:43:59;100482.28;;;22.77;46.01
43312;BME280;30041;48.300;16.352;2023-05-03T05:46:24;100478.66;;;22.83;46.02
43312;BME280;30041;48.300;16.352;2023-05-03T05:48:50;100476.09;;;22.88;46.07
43312;BME280;30041;48.300;16.352;2023-05-03T05:51:15;100474.25;;;22.89;46.28
43312;BME280;30041;48.300;16.352;2023-05-03T05:53:41;100480.41;;;22.96;46.11
43312;BME280;30041;48.300;16.352;2023-05-03T05:56:06;100487.84;;;22.82;46.31
43312;BME280;30041;48.300;16.352;2023-05-03T05:58:32;100484.28;;;22.82;46.49
43312;BME280;30041;48.300;16.352;2023-05-03T06:00:58;100487.47;;;22.78;46.26
43312;BME280;30041;48.300;16.352;2023-05-03T06:03:24;100500.44;;;22.70;46.03
43312;BME280;30041;48.300;16.352;2023-05-03T06:05:49;100503.00;;;23.02;45.69
43312;BME280;30041;48.300;16.352;2023-05-03T06:08:15;100501.63;;;22.92;45.94
43312;BME280;30041;48.300;16.352;2023-05-03T06:10:41;100500.00;;;22.91;46.17
43312;BME280;30041;48.300;16.352;2023-05-03T06:13:06;100506.38;;;22.78;46.68
43312;BME280;30041;48.300;16.352;2023-05-03T06:15:32;100503.47;;;22.80;46.70
43312;BME280;30041;48.300;16.352;2023-05-03T06:17:57;100510.28;;;22.83;46.51
43312;BME280;30041;48.300;16.352;2023-05-03T06:20:22;100509.16;;;22.90;46.32
43312;BME280;30041;48.300;16.352;2023-05-03T06:22:48;100511.50;;;22.87;46.51
43312;BME280;30041;48.300;16.352;2023-05-03T06:25:14;100510.91;;;22.66;45.76
43312;BME280;30041;48.300;16.352;2023-05-03T06:27:39;100509.38;;;22.70;46.38
43312;BME280;30041;48.300;16.352;2023-05-03T06:30:08;100513.06;;;22.76;46.70
43312;BME280;30041;48.300;16.352;2023-05-03T06:32:34;100513.53;;;22.73;47.07
43312;BME280;30041;48.300;16.352;2023-05-03T06:34:59;100516.88;;;22.68;47.13
43312;BME280;30041;48.300;16.352;2023-05-03T06:37:25;100513.94;;;22.70;47.22
43312;BME280;30041;48.300;16.352;2023-05-03T06:39:50;100516.66;;;22.70;47.42
43312;BME280;30041;48.300;16.352;2023-05-03T06:42:16;100523.25;;;22.74;47.33
43312;BME280;30041;48.300;16.352;2023-05-03T06:44:41;100527.41;;;22.76;47.57
43312;BME280;30041;48.300;16.352;2023-05-03T06:47:07;100522.66;;;22.72;47.59
43312;BME280;30041;48.300;16.352;2023-05-03T06:49:32;100523.25;;;22.74;47.47
43312;BME280;30041;48.300;16.352;2023-05-03T06:51:58;100524.69;;;22.76;47.45
43312;BME280;30041;48.300;16.352;2023-05-03T06:54:23;100518.47;;;22.76;47.81
43312;BME280;30041;48.300;16.352;2023-05-03T06:56:49;100522.97;;;22.82;47.59
43312;BME280;30041;48.300;16.352;2023-05-03T06:59:15;100529.34;;;22.88;47.29
43312;BME280;30041;48.300;16.352;2023-05-03T07:01:40;100530.03;;;22.83;47.62
43312;BME280;30041;48.300;16.352;2023-05-03T07:04:06;100527.72;;;22.87;47.32
43312;BME280;30041;48.300;16.352;2023-05-03T07:06:31;100525.22;;;22.85;47.39
43312;BME280;30041;48.300;16.352;2023-05-03T07:08:57;100524.63;;;22.83;47.78
43312;BME280;30041;48.300;16.352;2023-05-03T07:11:22;100523.59;;;22.84;47.74
43312;BME280;30041;48.300;16.352;2023-05-03T07:13:51;100529.81;;;22.85;47.64
43312;BME280;30041;48.300;16.352;2023-05-03T07:16:20;100529.00;;;22.84;47.75
43312;BME280;30041;48.300;16.352;2023-05-03T07:18:46;100524.16;;;22.86;47.58
43312;BME280;30041;48.300;16.352;2023-05-03T07:21:12;100519.22;;;22.83;47.68
43312;BME280;30041;48.300;16.352;2023-05-03T07:23:38;100525.44;;;22.84;47.58
43312;BME280;30041;48.300;16.352;2023-05-03T07:26:05;100524.84;;;22.82;47.71
43312;BME280;30041;48.300;16.352;2023-05-03T07:28:30;100522.13;;;22.82;47.71
43312;BME280;30041;48.300;16.352;2023-05-03T07:30:56;100521.31;;;22.81;47.79
43312;BME280;30041;48.300;16.352;2023-05-03T07:33:21;100518.38;;;22.83;47.49
43312;BME280;30041;48.300;16.352;2023-05-03T07:35:47;100516.50;;;22.83;47.48
43312;BME280;30041;48.300;16.352;2023-05-03T07:38:13;100515.91;;;22.81;47.73
43312;BME280;30041;48.300;16.352;2023-05-03T07:40:39;100521.56;;;22.79;47.49
43312;BME280;30041;48.300;16.352;2023-05-03T07:43:05;100528.81;;;22.79;47.56
43312;BME280;30041;48.300;16.352;2023-05-03T07:45:30;100525.06;;;22.80;47.42
43312;BME280;30041;48.300;16.352;2023-05-03T07:47:56;100526.28;;;22.84;47.59
43312;BME280;30041;48.300;16.352;2023-05-03T07:50:22;100529.81;;;22.85;47.68
43312;BME280;30041;48.300;16.352;2023-05-03T07:52:47;100529.66;;;22.79;47.32
43312;BME280;30041;48.300;16.352;2023-05-03T07:55:13;100526.72;;;22.81;47.54
43312;BME280;30041;48.300;16.352;2023-05-03T07:57:41;100537.75;;;22.98;46.34
43312;BME280;30041;48.300;16.352;2023-05-03T08:00:07;100529.56;;;22.86;46.91
43312;BME280;30041;48.300;16.352;2023-05-03T08:02:32;100534.22;;;22.79;47.03
43312;BME280;30041;48.300;16.352;2023-05-03T08:04:58;100526.97;;;22.79;47.13
43312;BME280;30041;48.300;16.352;2023-05-03T08:07:23;100531.53;;;22.79;47.26
43312;BME280;30041;48.300;16.352;2023-05-03T08:09:49;100527.53;;;22.82;47.28
43312;BME280;30041;48.300;16.352;2023-05-03T08:12:14;100536.72;;;22.80;47.40
43312;BME280;30041;48.300;16.352;2023-05-03T08:14:40;100532.94;;;22.82;47.42
43312;BME280;30041;48.300;16.352;2023-05-03T08:17:05;100533.53;;;22.84;47.26
43312;BME280;30041;48.300;16.352;2023-05-03T08:19:31;100543.53;;;22.83;47.48
43312;BME280;30041;48.300;16.352;2023-05-03T08:21:56;100542.44;;;22.91;47.13
43312;BME280;30041;48.300;16.352;2023-05-03T08:24:22;100539.19;;;22.82;47.37
43312;BME280;30041;48.300;16.352;2023-05-03T08:26:47;100537.84;;;22.91;46.89
43312;BME280;30041;48.300;16.352;2023-05-03T08:29:13;100541.59;;;22.90;47.15
43312;BME280;30041;48.300;16.352;2023-05-03T08:31:39;100547.16;;;22.95;47.00
43312;BME280;30041;48.300;16.352;2023-05-03T08:34:05;100553.81;;;22.93;47.10
43312;BME280;30041;48.300;16.352;2023-05-03T08:36:30;100543.84;;;22.93;47.00
43312;BME280;30041;48.300;16.352;2023-05-03T08:38:56;100546.56;;;22.93;47.10
43312;BME280;30041;48.300;16.352;2023-05-03T08:41:26;100545.50;;;22.94;46.99
43312;BME280;30041;48.300;16.352;2023-05-03T08:43:53;100546.56;;;22.93;47.39
43312;BME280;30041;48.300;16.352;2023-05-03T08:46:19;100546.88;;;23.04;47.02
43312;BME280;30041;48.300;16.352;2023-05-03T08:48:50;100542.59;;;23.14;46.38
43312;BME280;30041;48.300;16.352;2023-05-03T08:51:16;100535.88;;;23.35;46.24
43312;BME280;30041;48.300;16.352;2023-05-03T08:53:42;100545.94;;;23.47;45.71
43312;BME280;30041;48.300;16.352;2023-05-03T08:56:08;100547.47;;;23.54;45.50
43312;BME280;30041;48.300;16.352;2023-05-03T08:58:35;100547.84;;;23.58;45.52
43312;BME280;30041;48.300;16.352;2023-05-03T09:01:04;100538.19;;;23.62;45.46
43312;BME280;30041;48.300;16.352;2023-05-03T09:03:30;100540.25;;;23.67;45.17
43312;BME280;30041;48.300;16.352;2023-05-03T09:05:55;100542.69;;;23.68;45.30
43312;BME280;30041;48.300;16.352;2023-05-03T09:08:20;100537.88;;;23.70;45.01
43312;BME280;30041;48.300;16.352;2023-05-03T09:10:46;100535.56;;;23.74;45.08
43312;BME280;30041;48.300;16.352;2023-05-03T09:13:11;100539.06;;;23.74;44.79
43312;BME280;30041;48.300;16.352;2023-05-03T09:15:37;100534.28;;;23.76;44.98
43312;BME280;30041;48.300;16.352;2023-05-03T09:18:18;100527.81;;;23.77;45.13
43312;BME280;30041;48.300;16.352;2023-05-03T09:20:45;100518.66;;;23.78;44.86
43312;BME280;30041;48.300;16.352;2023-05-03T09:23:11;100522.78;;;23.81;44.89
43312;BME280;30041;48.300;16.352;2023-05-03T09:25:45;100529.22;;;23.80;45.05
43312;BME280;30041;48.300;16.352;2023-05-03T09:28:12;100525.84;;;23.85;44.99
43312;BME280;30041;48.300;16.352;2023-05-03T09:30:37;100521.25;;;23.85;44.54
43312;BME280;30041;48.300;16.352;2023-05-03T09:33:03;100519.16;;;23.87;44.69
43312;BME280;30041;48.300;16.352;2023-05-03T09:35:29;100526.19;;;23.88;44.72
43312;BME280;30041;48.300;16.352;2023-05-03T09:37:54;100527.00;;;23.89;44.67
43312;BME280;30041;48.300;16.352;2023-05-03T09:40:20;100526.78;;;23.90;44.39
43312;BME280;30041;48.300;16.352;2023-05-03T09:43:05;100534.53;;;23.87;44.48
43312;BME280;30041;48.300;16.352;2023-05-03T09:45:34;100522.78;;;23.93;44.44
43312;BME280;30041;48.300;16.352;2023-05-03T09:48:04;100518.66;;;23.90;44.73
43312;BME280;30041;48.300;16.352;2023-05-03T09:50:34;100519.47;;;23.91;44.79
43312;BME280;30041;48.300;16.352;2023-05-03T09:53:05;100513.63;;;23.94;44.60
43312;BME280;30041;48.300;16.352;2023-05-03T09:55:34;100510.44;;;23.97;44.30
43312;BME280;30041;48.300;16.352;2023-05-03T09:58:01;100505.03;;;23.97;44.70
43312;BME280;30041;48.300;16.352;2023-05-03T10:00:28;100509.41;;;23.98;44.54
43312;BME280;30041;48.300;16.352;2023-05-03T10:02:55;100498.56;;;23.98;44.18
43312;BME280;30041;48.300;16.352;2023-05-03T10:05:21;100505.63;;;23.99;44.62
43312;BME280;30041;48.300;16.352;2023-05-03T10:07:50;100501.03;;;23.99;44.44
43312;BME280;30041;48.300;16.352;2023-05-03T10:10:17;100494.78;;;23.99;44.25
43312;BME280;30041;48.300;16.352;2023-05-03T10:12:44;100495.38;;;24.01;44.47
43312;BME280;30041;48.300;16.352;2023-05-03T10:15:11;100484.31;;;24.02;44.39
43312;BME280;30041;48.300;16.352;2023-05-03T10:17:39;100489.47;;;24.04;44.16
43312;BME280;30041;48.300;16.352;2023-05-03T10:25:34;100476.53;;;24.06;44.21
43312;BME280;30041;48.300;16.352;2023-05-03T10:28:05;100479.25;;;24.06;44.30
43312;BME280;30041;48.300;16.352;2023-05-03T10:30:32;100480.66;;;24.09;44.32
43312;BME280;30041;48.300;16.352;2023-05-03T10:33:22;100481.50;;;24.09;44.30
43312;BME280;30041;48.300;16.352;2023-05-03T10:35:52;100480.91;;;24.07;44.23
43312;BME280;30041;48.300;16.352;2023-05-03T10:38:23;100480.66;;;24.09;44.34
43312;BME280;30041;48.300;16.352;2023-05-03T10:40:49;100476.91;;;24.10;44.40
43312;BME280;30041;48.300;16.352;2023-05-03T10:46:38;100475.84;;;24.11;44.06
43312;BME280;30041;48.300;16.352;2023-05-03T10:49:17;100477.13;;;24.08;44.34
43312;BME280;30041;48.300;16.352;2023-05-03T10:51:42;100482.91;;;24.12;44.20
43312;BME280;30041;48.300;16.352;2023-05-03T10:54:08;100483.72;;;24.12;43.90
43312;BME280;30041;48.300;16.352;2023-05-03T10:56:46;100483.97;;;24.11;44.24
43312;BME280;30041;48.300;16.352;2023-05-03T10:59:12;100484.09;;;24.16;44.03
43312;BME280;30041;48.300;16.352;2023-05-03T11:01:38;100482.22;;;24.16;44.28
43312;BME280;30041;48.300;16.352;2023-05-03T11:04:17;100492.78;;;24.18;44.17
43312;BME280;30041;48.300;16.352;2023-05-03T11:06:46;100480.91;;;24.19;44.02
43312;BME280;30041;48.300;16.352;2023-05-03T11:09:11;100483.41;;;24.20;44.13
43312;BME280;30041;48.300;16.352;2023-05-03T11:11:38;100489.84;;;24.19;44.20
43312;BME280;30041;48.300;16.352;2023-05-03T11:14:05;100483.41;;;24.20;44.08
43312;BME280;30041;48.300;16.352;2023-05-03T11:16:31;100480.09;;;24.18;44.00
43312;BME280;30041;48.300;16.352;2023-05-03T11:18:56;100485.84;;;24.22;43.84
43312;BME280;30041;48.300;16.352;2023-05-03T11:21:24;100484.44;;;24.19;44.07
43312;BME280;30041;48.300;16.352;2023-05-03T11:23:49;100477.97;;;24.20;44.03
43312;BME280;30041;48.300;16.352;2023-05-03T11:26:15;100484.00;;;24.22;43.78
43312;BME280;30041;48.300;16.352;2023-05-03T11:28:41;100489.41;;;24.22;43.78
43312;BME280;30041;48.300;16.352;2023-05-03T11:31:08;100480.44;;;24.22;43.80
43312;BME280;30041;48.300;16.352;2023-05-03T11:33:38;100488.31;;;24.23;43.99
43312;BME280;30041;48.300;16.352;2023-05-03T11:36:05;100479.38;;;24.23;43.73
43312;BME280;30041;48.300;16.352;2023-05-03T11:38:32;100487.25;;;24.24;43.78
43312;BME280;30041;48.300;16.352;2023-05-03T11:40:58;100486.44;;;24.24;43.87
43312;BME280;30041;48.300;16.352;2023-05-03T11:43:26;100478.09;;;24.26;43.80
43312;BME280;30041;48.300;16.352;2023-05-03T11:45:55;100485.59;;;24.00;44.06
43312;BME280;30041;48.300;16.352;2023-05-03T11:48:22;100486.22;;;23.60;45.17
43312;BME280;30041;48.300;16.352;2023-05-03T11:50:49;100489.69;;;23.49;45.25
43312;BME280;30041;48.300;16.352;2023-05-03T11:53:17;100484.84;;;23.39;45.57
43312;BME280;30041;48.300;16.352;2023-05-03T11:55:45;100487.63;;;23.32;45.55
43312;BME280;30041;48.300;16.352;2023-05-03T11:58:22;100480.22;;;23.28;45.51
43312;BME280;30041;48.300;16.352;2023-05-03T12:00:52;100478.78;;;23.25;45.83
43312;BME280;30041;48.300;16.352;2023-05-03T12:03:26;100470.31;;;23.21;45.93
43312;BME280;30041;48.300;16.352;2023-05-03T12:05:52;100475.97;;;23.20;45.92
43312;BME280;30041;48.300;16.352;2023-05-03T12:08:21;100469.47;;;23.21;46.08
43312;BME280;30041;48.300;16.352;2023-05-03T12:10:50;100472.00;;;23.34;45.67
43312;BME280;30041;48.300;16.352;2023-05-03T12:13:36;100478.19;;;23.23;46.00
43312;BME280;30041;48.300;16.352;2023-05-03T12:16:02;100481.38;;;23.20;45.93
43312;BME280;30041;48.300;16.352;2023-05-03T12:18:49;100477.59;;;23.21;46.07
43312;BME280;30041;48.300;16.352;2023-05-03T12:21:15;100474.28;;;23.19;46.10
43312;BME280;30041;48.300;16.352;2023-05-03T12:23:41;100483.47;;;23.18;46.15
43312;BME280;30041;48.300;16.352;2023-05-03T12:26:07;100481.00;;;23.16;45.98
43312;BME280;30041;48.300;16.352;2023-05-03T12:28:32;100484.34;;;23.00;43.88
43312;BME280;30041;48.300;16.352;2023-05-03T12:30:58;100482.88;;;22.97;45.40
43312;BME280;30041;48.300;16.352;2023-05-03T12:33:23;100483.66;;;23.05;45.25
43312;BME280;30041;48.300;16.352;2023-05-03T12:35:49;100480.69;;;23.06;45.13
43312;BME280;30041;48.300;16.352;2023-05-03T12:38:14;100474.25;;;23.07;45.21
43312;BME280;30041;48.300;16.352;2023-05-03T12:40:40;100473.19;;;23.08;45.07
43312;BME280;30041;48.300;16.352;2023-05-03T12:43:05;100472.16;;;23.09;44.98
43312;BME280;30041;48.300;16.352;2023-05-03T12:45:31;100475.66;;;23.10;45.21
43312;BME280;30041;48.300;16.352;2023-05-03T12:47:57;100469.66;;;23.08;45.27
43312;BME280;30041;48.300;16.352;2023-05-03T12:50:23;100464.38;;;23.13;45.15
43312;BME280;30041;48.300;16.352;2023-05-03T12:52:49;100466.66;;;23.16;45.01